Time;durP1;ratioP1;P1;durP2;ratioP2;P2;SDS_P1;SDS_P2;PMS_P1;PMS_P2;Temp;Humidity;BMP_temperature;BMP_pressure;BME280_temperature;BME280_humidity;BME280_pressure;Samples;Min_cycle;Max_cycle;Signal;HPM_P1;HPM_P2
2024/02/07 00:05:12;;;;;;;10.60;4.15;;;;;;;14.98;100.00;101775.16;10555963;28;20048;-75
2024/02/07 00:10:35;;;;;;;19.08;4.50;;;;;;;14.86;100.00;101782.97;10556323;28;20252;-74
2024/02/07 00:15:59;;;;;;;10.93;4.28;;;;;;;14.86;100.00;101790.06;10569312;28;20052;-75
2024/02/07 00:21:24;;;;;;;13.68;3.08;;;;;;;14.84;100.00;101800.66;10563951;28;20047;-74
2024/02/07 00:26:48;;;;;;;16.52;3.97;;;;;;;14.70;100.00;101799.59;10563537;28;20077;-75
2024/02/07 00:32:12;;;;;;;13.23;4.38;;;;;;;14.61;100.00;101796.78;10563043;28;20048;-75
2024/02/07 00:37:34;;;;;;;14.77;4.10;;;;;;;14.55;100.00;101796.69;10577817;28;20104;-74
2024/02/07 00:42:57;;;;;;;8.30;3.58;;;;;;;14.45;100.00;101792.97;10570581;28;20040;-75
2024/02/07 00:48:21;;;;;;;15.23;5.05;;;;;;;14.55;100.00;101788.72;10562855;28;20569;-75
2024/02/07 00:53:43;;;;;;;20.98;4.75;;;;;;;14.49;100.00;101777.97;10557501;28;20046;-75
2024/02/07 00:59:06;;;;;;;12.63;4.18;;;;;;;14.46;100.00;101761.97;10553090;28;20392;-75
2024/02/07 01:04:30;;;;;;;11.82;4.25;;;;;;;14.60;100.00;101760.44;10562445;28;20055;-75
2024/02/07 01:09:52;;;;;;;14.05;4.15;;;;;;;14.60;100.00;101747.13;10561628;28;20391;-74
2024/02/07 01:15:15;;;;;;;9.32;4.13;;;;;;;14.48;100.00;101739.88;10584765;27;20051;-74
2024/02/07 01:20:39;;;;;;;12.43;3.80;;;;;;;14.71;100.00;101727.81;10569800;27;20047;-73
2024/02/07 01:26:02;;;;;;;13.55;3.92;;;;;;;14.52;100.00;101739.06;10579020;27;20101;-75
2024/02/07 01:31:24;;;;;;;14.43;3.63;;;;;;;14.49;100.00;101736.38;10563665;27;20050;-75
2024/02/07 01:36:48;;;;;;;12.32;3.70;;;;;;;14.47;100.00;101750.47;10587213;27;20047;-75
2024/02/07 01:42:11;;;;;;;15.15;3.65;;;;;;;14.50;100.00;101737.25;10574464;27;20146;-75
2024/02/07 01:47:34;;;;;;;13.07;3.40;;;;;;;14.44;100.00;101727.41;10569231;27;20129;-75
2024/02/07 01:53:01;;;;;;;13.40;4.32;;;;;;;14.42;100.00;101730.94;10570723;27;20051;-74
2024/02/07 01:58:27;;;;;;;9.97;3.60;;;;;;;14.35;100.00;101728.16;10577668;27;20043;-75
2024/02/07 02:03:50;;;;;;;13.05;4.07;;;;;;;14.30;100.00;101731.59;10564043;27;20051;-75
2024/02/07 02:09:15;;;;;;;14.40;3.80;;;;;;;14.33;100.00;101731.63;10569781;27;20650;-75
2024/02/07 02:14:37;;;;;;;10.30;3.67;;;;;;;14.33;100.00;101735.19;10572291;27;20040;-75
2024/02/07 02:20:00;;;;;;;13.90;3.65;;;;;;;14.25;100.00;101725.28;10574391;27;20043;-75
2024/02/07 02:25:59;;;;;;;12.07;3.45;;;;;;;14.21;100.00;101721.72;10600183;27;20058;-75
2024/02/07 02:31:25;;;;;;;11.20;2.92;;;;;;;14.38;100.00;101714.03;10551841;27;20554;-74
2024/02/07 02:36:48;;;;;;;11.77;4.20;;;;;;;14.25;100.00;101712.91;10581555;27;20326;-75
2024/02/07 02:42:10;;;;;;;9.73;3.53;;;;;;;14.17;100.00;101708.38;10571808;27;20046;-75
2024/02/07 02:47:34;;;;;;;16.25;3.67;;;;;;;13.94;100.00;101702.66;10567293;27;20096;-75
2024/02/07 02:52:58;;;;;;;15.07;3.28;;;;;;;14.00;100.00;101693.91;10570405;27;20070;-75
2024/02/07 02:58:21;;;;;;;11.25;3.47;;;;;;;14.02;100.00;101692.19;10568314;27;20047;-75
2024/02/07 03:03:53;;;;;;;12.93;2.72;;;;;;;13.98;100.00;101711.59;10559211;27;20054;-75
2024/02/07 03:09:19;;;;;;;14.68;3.47;;;;;;;14.14;100.00;101714.50;10569736;27;20131;-74
2024/02/07 03:14:41;;;;;;;19.83;3.72;;;;;;;14.15;100.00;101703.03;10592265;28;20109;-74
2024/02/07 03:20:08;;;;;;;13.20;3.10;;;;;;;14.10;100.00;101709.13;10583556;28;20039;-74
2024/02/07 03:25:33;;;;;;;8.95;3.45;;;;;;;14.02;100.00;101695.72;10547461;28;20104;-74
2024/02/07 03:30:56;;;;;;;12.93;3.20;;;;;;;13.89;100.00;101699.94;10567078;28;20050;-74
2024/02/07 03:36:21;;;;;;;10.80;3.65;;;;;;;14.01;100.00;101698.34;10544028;28;20047;-74
2024/02/07 03:41:46;;;;;;;10.18;3.97;;;;;;;13.90;100.00;101701.75;10550471;28;20070;-75
2024/02/07 03:47:09;;;;;;;6.68;2.70;;;;;;;13.98;100.00;101709.81;10563720;28;20055;-74
2024/02/07 03:52:33;;;;;;;14.02;3.05;;;;;;;14.02;100.00;101708.09;10592743;27;20058;-75
2024/02/07 03:57:56;;;;;;;12.73;2.85;;;;;;;14.18;100.00;101718.09;10603778;27;20059;-74
2024/02/07 04:03:19;;;;;;;9.02;2.63;;;;;;;14.14;100.00;101722.47;10578002;27;20048;-75
2024/02/07 04:08:43;;;;;;;9.95;3.78;;;;;;;14.08;100.00;101717.06;10568056;27;20065;-75
2024/02/07 05:16:12;;;;;;;13.00;3.10;;;;;;;13.76;100.00;101727.13;10615156;27;20460;-74
2024/02/07 05:21:36;;;;;;;9.80;3.10;;;;;;;13.94;100.00;101732.75;10595797;27;20104;-74
2024/02/07 05:27:00;;;;;;;8.23;2.28;;;;;;;14.09;100.00;101736.56;10593342;27;20603;-74
2024/02/07 05:32:24;;;;;;;13.68;2.80;;;;;;;14.14;100.00;101748.13;10607669;27;20066;-74
2024/02/07 05:37:48;;;;;;;11.88;2.92;;;;;;;14.22;100.00;101744.75;10625965;27;20100;-74
2024/02/07 05:43:12;;;;;;;12.45;3.70;;;;;;;14.28;100.00;101749.25;10603788;27;20051;-74
2024/02/07 05:48:39;;;;;;;12.25;3.20;;;;;;;14.35;100.00;101748.50;10596029;27;20062;-75
2024/02/07 05:54:01;;;;;;;8.15;3.13;;;;;;;14.34;100.00;101754.69;10623194;27;20043;-75
2024/02/07 05:59:24;;;;;;;15.65;3.85;;;;;;;15.80;100.00;101760.25;10639875;27;20479;-74
2024/02/07 06:04:49;;;;;;;13.88;4.80;;;;;;;19.20;100.00;101736.47;10571860;27;20141;-74
2024/02/07 06:10:12;;;;;;;17.15;6.35;;;;;;;20.92;100.00;101748.59;10604861;27;20040;-76
2024/02/07 06:15:34;;;;;;;7.55;2.40;;;;;;;21.68;98.51;101755.72;10575138;27;20124;-74
2024/02/07 06:20:58;;;;;;;9.20;2.88;;;;;;;20.03;100.00;101767.25;10557908;28;20552;-74
2024/02/07 06:26:21;;;;;;;8.40;2.75;;;;;;;18.24;100.00;101771.41;10571918;28;20400;-75
2024/02/07 06:31:43;;;;;;;9.65;2.65;;;;;;;19.53;100.00;101770.25;10572960;28;20479;-75
2024/02/07 06:37:07;;;;;;;9.07;3.45;;;;;;;22.09;94.98;101758.72;10558069;28;20044;-75
2024/02/07 06:42:30;;;;;;;9.23;3.60;;;;;;;23.08;79.61;101758.75;10540908;28;20058;-75
2024/02/07 06:47:52;;;;;;;11.18;3.88;;;;;;;24.34;67.69;101751.44;10572790;28;20062;-75
2024/02/07 06:53:16;;;;;;;11.70;3.45;;;;;;;25.32;56.89;101742.44;10557973;28;20043;-75
2024/02/07 06:58:39;;;;;;;7.13;2.50;;;;;;;25.75;55.28;101735.72;10554660;28;20509;-75
2024/02/07 07:04:02;;;;;;;9.13;3.28;;;;;;;25.91;49.65;101728.91;10542196;28;20113;-75
2024/02/07 07:09:26;;;;;;;11.15;2.90;;;;;;;25.27;52.88;101733.53;10557255;28;20662;-75
2024/02/07 07:14:48;;;;;;;9.35;2.78;;;;;;;25.38;51.19;101720.63;10593277;28;20059;-76
2024/02/07 07:20:11;;;;;;;11.15;3.60;;;;;;;24.90;50.37;101717.53;10588671;28;20031;-76
2024/02/07 07:25:35;;;;;;;5.43;2.58;;;;;;;24.44;53.26;101712.47;10579849;27;20062;-75
2024/02/07 07:30:58;;;;;;;11.07;3.67;;;;;;;25.45;49.89;101726.72;10604999;27;20047;-75
2024/02/07 07:36:20;;;;;;;13.40;4.03;;;;;;;24.69;52.03;101712.69;10609254;27;20572;-76
2024/02/07 07:41:44;;;;;;;6.32;2.80;;;;;;;25.70;48.76;101702.53;10610591;27;20411;-76
2024/02/07 07:47:07;;;;;;;8.85;3.05;;;;;;;25.96;46.05;101702.56;10595545;27;20043;-75
2024/02/07 07:52:29;;;;;;;17.35;8.30;;;;;;;26.96;45.10;101714.44;10589920;27;20046;-75
2024/02/07 07:57:53;;;;;;;17.65;6.55;;;;;;;29.16;40.42;101724.25;10620620;27;20049;-76
2024/02/07 08:03:15;;;;;;;8.45;2.92;;;;;;;32.10;34.96;101727.97;10607907;27;20108;-76
2024/02/07 08:08:38;;;;;;;9.02;2.83;;;;;;;28.96;37.56;101697.09;10584355;27;20039;-76
2024/02/07 08:14:02;;;;;;;6.68;2.63;;;;;;;28.29;39.62;101699.22;10613441;27;20071;-76
2024/02/07 08:19:24;;;;;;;7.30;3.03;;;;;;;29.39;37.67;101704.19;10622358;27;20055;-76
2024/02/07 08:24:47;;;;;;;7.07;2.80;;;;;;;28.03;39.25;101701.13;10603606;27;20092;-76
2024/02/07 08:30:13;;;;;;;8.15;3.20;;;;;;;26.51;42.30;101687.16;10564327;28;20139;-76
2024/02/07 08:35:35;;;;;;;8.82;2.97;;;;;;;25.68;44.19;101671.91;10562584;28;20056;-75
2024/02/07 08:40:58;;;;;;;8.95;3.00;;;;;;;25.74;43.98;101663.59;10579575;27;20065;-75
2024/02/07 08:46:21;;;;;;;14.88;4.28;;;;;;;26.23;43.27;101672.78;10579687;27;20510;-75
2024/02/07 08:51:44;;;;;;;11.20;3.78;;;;;;;25.97;44.12;101646.63;10602429;27;20043;-76
2024/02/07 08:57:06;;;;;;;6.03;2.70;;;;;;;26.78;42.69;101645.50;10580987;27;20042;-76
2024/02/07 09:02:30;;;;;;;6.78;3.33;;;;;;;26.03;43.00;101619.34;10581949;27;20058;-75
2024/02/07 09:07:57;;;;;;;10.43;3.87;;;;;;;25.70;45.44;101610.53;10577857;27;20035;-75
2024/02/07 09:13:19;;;;;;;12.75;5.25;;;;;;;25.71;44.58;101596.09;10604467;27;20100;-75
2024/02/07 09:18:43;;;;;;;15.15;4.90;;;;;;;25.60;46.42;101618.06;10602369;27;20053;-75
2024/02/07 09:24:07;;;;;;;12.90;4.85;;;;;;;25.68;45.76;101593.47;10604587;27;20134;-75
2024/02/07 09:29:30;;;;;;;11.70;3.85;;;;;;;25.94;45.51;101617.81;10584667;27;20039;-73
2024/02/07 09:34:54;;;;;;;7.57;3.40;;;;;;;26.55;43.57;101627.41;10576423;27;20040;-76
2024/02/07 09:40:19;;;;;;;7.20;3.97;;;;;;;26.64;42.83;101615.34;10583364;27;20057;-75
2024/02/07 09:45:44;;;;;;;11.60;3.47;;;;;;;27.17;42.04;101604.28;10606692;27;20044;-76
2024/02/07 09:51:14;;;;;;;8.75;3.53;;;;;;;26.70;41.80;101609.69;10602278;27;20042;-76
2024/02/07 09:56:38;;;;;;;9.77;3.70;;;;;;;26.72;42.25;101585.22;10600299;27;20057;-76
2024/02/07 10:02:01;;;;;;;15.50;4.22;;;;;;;25.92;42.89;101572.81;10616841;27;20050;-76
2024/02/07 10:07:25;;;;;;;12.80;3.80;;;;;;;25.94;44.08;101555.56;10611743;27;20042;-75
2024/02/07 10:12:49;;;;;;;12.52;3.85;;;;;;;25.98;44.03;101553.66;10609043;27;20115;-78
2024/02/07 10:18:11;;;;;;;11.52;4.05;;;;;;;25.10;46.48;101545.78;10621098;27;20395;-76
2024/02/07 10:23:35;;;;;;;8.38;3.88;;;;;;;25.68;45.62;101540.25;10609220;27;20050;-76
2024/02/07 10:28:59;;;;;;;9.10;3.97;;;;;;;25.01;47.63;101534.34;10622552;27;20091;-76
2024/02/07 10:34:21;;;;;;;11.43;3.55;;;;;;;24.57;48.80;101524.88;10573754;27;20070;-76
2024/02/07 10:39:46;;;;;;;7.97;4.45;;;;;;;24.18;50.25;101526.91;10590786;27;20067;-76
2024/02/07 10:45:10;;;;;;;16.38;4.88;;;;;;;24.05;52.82;101519.19;10616996;27;20619;-76
2024/02/07 10:50:33;;;;;;;8.25;3.60;;;;;;;24.68;50.84;101499.38;10589582;27;20038;-76
2024/02/07 10:55:58;;;;;;;12.50;4.32;;;;;;;24.63;51.51;101500.38;10622351;27;20055;-78
2024/02/07 11:01:22;;;;;;;12.93;4.43;;;;;;;24.11;54.14;101492.91;10632145;27;20043;-78
2024/02/07 11:06:45;;;;;;;10.63;4.13;;;;;;;24.02;56.41;101482.41;10608432;27;20045;-78
2024/02/07 11:12:10;;;;;;;15.55;5.30;;;;;;;23.72;59.92;101476.03;10640278;27;20177;-79
2024/02/07 11:17:33;;;;;;;7.35;3.50;;;;;;;24.09;58.65;101477.72;10603683;27;20050;-76
2024/02/07 11:22:58;;;;;;;7.50;3.50;;;;;;;23.80;59.33;101457.84;10592700;28;20043;-76
2024/02/07 11:28:24;;;;;;;12.43;4.10;;;;;;;23.42;64.72;101456.16;10582959;28;20522;-77
2024/02/07 11:33:51;;;;;;;13.00;4.45;;;;;;;23.38;65.09;101456.25;10595112;28;20047;-78
2024/02/07 11:39:17;;;;;;;;;;;;;;;23.14;70.81;101455.09;10585767;28;20127;-79
2024/02/07 11:44:52;;;;;;;8.02;3.15;;;;;;;22.76;79.86;101445.25;10600425;28;19927;-77
2024/02/07 11:50:16;;;;;;;15.50;4.00;;;;;;;21.92;91.01;101447.94;10578342;28;20096;-78
2024/02/07 11:55:41;;;;;;;15.38;4.88;;;;;;;21.48;98.00;101442.50;10618986;27;20071;-77
2024/02/07 12:01:08;;;;;;;13.05;4.40;;;;;;;21.12;100.00;101437.75;10585078;28;20466;-77
2024/02/07 12:06:33;;;;;;;13.15;3.88;;;;;;;20.95;100.00;101427.28;10569766;28;20050;-77
2024/02/07 12:11:55;;;;;;;9.93;3.50;;;;;;;20.57;100.00;101432.34;10616197;27;20063;-78
2024/02/07 12:17:20;;;;;;;8.57;3.70;;;;;;;20.41;100.00;101436.19;10614856;27;20051;-77
2024/02/07 12:22:47;;;;;;;14.77;3.83;;;;;;;20.47;100.00;101438.78;10592458;27;20055;-76
2024/02/07 12:28:10;;;;;;;13.50;3.25;;;;;;;20.73;100.00;101441.06;10579320;27;20052;-79
2024/02/07 12:33:34;;;;;;;18.08;4.72;;;;;;;20.81;100.00;101442.72;10581695;27;20095;-78
2024/02/07 12:38:57;;;;;;;13.88;4.90;;;;;;;20.35;100.00;101426.41;10586790;27;20095;-80
2024/02/07 12:44:20;;;;;;;23.58;12.43;;;;;;;20.41;100.00;101436.19;10573310;27;20058;-75
2024/02/07 12:49:44;;;;;;;17.15;6.53;;;;;;;20.38;100.00;101444.25;10569558;27;20463;-76
2024/02/07 12:55:07;;;;;;;13.85;4.38;;;;;;;19.94;100.00;101431.41;10577849;27;20040;-76
2024/02/07 13:00:30;;;;;;;13.82;4.40;;;;;;;19.89;100.00;101432.31;10584686;27;20620;-78
2024/02/07 13:05:54;;;;;;;13.02;4.15;;;;;;;19.93;100.00;101433.19;10575507;27;20542;-78
2024/02/07 13:11:16;;;;;;;10.68;3.75;;;;;;;19.83;100.00;101408.28;10598303;27;20088;-78
2024/02/07 13:16:39;;;;;;;13.48;4.18;;;;;;;19.77;100.00;101434.25;10574816;27;20055;-77
2024/02/07 13:22:03;;;;;;;13.70;3.67;;;;;;;19.71;100.00;101432.53;10562107;27;20055;-75
2024/02/07 13:27:26;;;;;;;10.75;3.92;;;;;;;19.67;100.00;101430.81;10579976;27;20047;-77
2024/02/07 13:32:48;;;;;;;14.23;3.83;;;;;;;19.67;100.00;101433.50;10563930;27;20085;-77
2024/02/07 13:38:12;;;;;;;14.65;3.97;;;;;;;19.72;100.00;101420.94;10575459;27;20144;-78
2024/02/07 13:43:35;;;;;;;10.00;3.20;;;;;;;19.70;100.00;101420.06;10599571;27;20039;-77
2024/02/07 13:48:58;;;;;;;10.18;2.97;;;;;;;19.75;100.00;101417.34;10580391;27;20479;-82
2024/02/07 13:54:22;;;;;;;10.70;2.80;;;;;;;19.45;100.00;101413.16;10591633;27;20051;-80
2024/02/07 13:59:52;;;;;;;15.30;3.75;;;;;;;19.35;100.00;101414.16;10605793;27;20050;-79
2024/02/07 14:05:15;;;;;;;9.85;3.85;;;;;;;19.17;100.00;101417.00;10604701;27;20130;-82
2024/02/07 14:10:39;;;;;;;12.98;3.80;;;;;;;19.09;100.00;101417.97;10591440;27;20057;-81
2024/02/07 14:16:02;;;;;;;12.52;3.63;;;;;;;18.87;100.00;101402.09;10584823;27;20059;-80
2024/02/07 14:21:25;;;;;;;10.23;3.72;;;;;;;18.76;100.00;101428.94;10560453;27;20052;-78
2024/02/07 14:26:49;;;;;;;13.00;3.50;;;;;;;18.69;100.00;101433.47;10586580;27;20039;-79
2024/02/07 14:32:11;;;;;;;17.83;3.45;;;;;;;18.47;100.00;101428.22;10579917;27;20055;-79
2024/02/07 14:37:35;;;;;;;12.10;3.83;;;;;;;18.35;100.00;101420.25;10588422;27;20392;-79
2024/02/07 14:42:59;;;;;;;13.05;4.28;;;;;;;18.21;100.00;101431.03;10603541;27;20039;-79
2024/02/07 14:48:21;;;;;;;13.48;4.60;;;;;;;18.03;100.00;101429.34;10588658;27;20522;-80
2024/02/07 14:53:43;;;;;;;10.88;3.85;;;;;;;18.03;100.00;101421.31;10565125;27;20198;-78
2024/02/07 14:59:07;;;;;;;10.93;4.18;;;;;;;17.84;100.00;101417.84;10606287;27;20494;-80
2024/02/07 15:04:31;;;;;;;18.48;4.45;;;;;;;17.73;100.00;101424.97;10572365;27;20077;-80
2024/02/07 15:09:53;;;;;;;16.08;5.13;;;;;;;17.52;100.00;101428.56;10588968;27;20080;-79
2024/02/07 15:15:18;;;;;;;14.18;4.03;;;;;;;17.37;100.00;101428.59;10573652;28;20047;-81
2024/02/07 15:20:41;;;;;;;19.35;4.38;;;;;;;17.25;100.00;101433.06;10574046;28;20058;-82
2024/02/07 15:26:03;;;;;;;15.68;4.28;;;;;;;17.20;100.00;101433.06;10595622;28;20047;-81
2024/02/07 15:31:27;;;;;;;15.60;4.35;;;;;;;17.03;100.00;101421.50;10600444;28;20082;-83
2024/02/07 15:36:50;;;;;;;15.57;4.68;;;;;;;16.95;100.00;101428.63;10616053;28;20043;-83
2024/02/07 15:42:12;;;;;;;18.15;4.90;;;;;;;16.79;100.00;101440.19;10596322;27;20514;-81
2024/02/07 15:47:36;;;;;;;15.88;5.97;;;;;;;16.67;100.00;101433.94;10587752;27;20051;-82
2024/02/07 15:52:59;;;;;;;15.25;5.22;;;;;;;16.60;100.00;101433.94;10609904;27;20058;-80
2024/02/07 15:58:21;;;;;;;16.23;4.53;;;;;;;16.51;100.00;101445.44;10625081;27;20070;-82
2024/02/07 16:03:45;;;;;;;13.35;4.28;;;;;;;16.45;100.00;101449.84;10574233;27;20047;-81
2024/02/07 16:09:10;;;;;;;22.27;5.15;;;;;;;16.42;100.00;101440.06;10597654;27;20491;-81
2024/02/07 16:14:34;;;;;;;19.08;4.25;;;;;;;16.35;100.00;101455.16;10598899;27;20054;-82
2024/02/07 16:19:58;;;;;;;20.70;5.03;;;;;;;16.35;100.00;101452.47;10608194;27;20504;-80
2024/02/07 16:25:21;;;;;;;14.38;4.50;;;;;;;16.30;100.00;101456.91;10619683;27;20053;-80
2024/02/07 16:30:43;;;;;;;14.38;4.72;;;;;;;16.29;100.00;101478.22;10608826;27;20051;-83
2024/02/07 16:36:13;;;;;;;18.02;5.30;;;;;;;16.30;100.00;101472.00;10620156;27;20081;-78
2024/02/07 16:41:36;;;;;;;14.65;5.30;;;;;;;16.22;100.00;101471.97;10587471;27;20047;-78
2024/02/07 16:46:58;;;;;;;16.88;5.50;;;;;;;16.33;100.00;101477.38;10584347;27;20578;-84
2024/02/07 16:52:23;;;;;;;16.40;5.15;;;;;;;16.27;100.00;101478.25;10576948;27;20051;-77
2024/02/07 16:57:45;;;;;;;14.15;4.18;;;;;;;16.31;100.00;101487.13;10585329;27;20051;-84
2024/02/07 17:03:10;;;;;;;13.00;4.32;;;;;;;16.24;100.00;101490.63;10574703;27;20092;-80
2024/02/07 17:08:34;;;;;;;21.65;5.00;;;;;;;16.23;100.00;101480.88;10588353;27;20047;-81
2024/02/07 17:13:57;;;;;;;11.82;4.90;;;;;;;16.22;100.00;101479.06;10598806;27;20073;-81
2024/02/07 17:19:19;;;;;;;15.48;5.22;;;;;;;16.17;100.00;101483.50;10607155;27;20051;-81
2024/02/07 17:24:43;;;;;;;14.18;5.00;;;;;;;16.15;100.00;101491.47;10607039;27;20039;-84
2024/02/07 17:30:07;;;;;;;18.80;5.05;;;;;;;16.15;100.00;101478.16;10605846;27;20051;-81
2024/02/07 17:35:29;;;;;;;13.40;4.65;;;;;;;16.16;100.00;101493.28;10568662;28;20100;-82
2024/02/07 17:40:54;;;;;;;15.15;5.43;;;;;;;16.07;100.00;101490.59;10596209;27;20047;-81
2024/02/07 17:46:16;;;;;;;19.42;5.13;;;;;;;16.02;100.00;101497.63;10568834;27;20059;-82
2024/02/07 17:51:44;;;;;;;15.60;5.32;;;;;;;16.06;100.00;101493.22;10591683;27;20135;-81
2024/02/07 17:57:07;;;;;;;15.63;4.85;;;;;;;15.98;100.00;101481.66;10602427;27;20058;-83
2024/02/07 18:02:30;;;;;;;14.80;4.95;;;;;;;16.04;100.00;101473.69;10591855;27;20099;-81
2024/02/07 18:07:56;;;;;;;16.42;5.18;;;;;;;15.98;100.00;101482.53;10598672;27;20088;-83
2024/02/07 18:13:20;;;;;;;19.73;6.18;;;;;;;16.01;100.00;101487.88;10609157;27;20058;-83
2024/02/07 18:18:42;;;;;;;13.15;5.47;;;;;;;15.93;100.00;101498.50;10596357;27;20058;-81
2024/02/07 18:24:05;;;;;;;13.75;5.00;;;;;;;15.98;100.00;101486.97;10558530;27;20048;-81
2024/02/07 18:29:30;;;;;;;13.93;5.50;;;;;;;15.92;100.00;101490.50;10587596;27;20042;-82
2024/02/07 18:34:53;;;;;;;24.30;5.40;;;;;;;15.92;100.00;101486.06;10585571;27;20515;-83
2024/02/07 18:40:16;;;;;;;11.45;4.65;;;;;;;15.99;100.00;101486.97;10584438;27;20047;-81
2024/02/07 18:45:40;;;;;;;14.48;4.70;;;;;;;15.99;100.00;101494.06;10588491;27;20534;-84
2024/02/07 18:51:02;;;;;;;16.25;4.72;;;;;;;15.93;100.00;101489.63;10563698;27;20043;-85
2024/02/07 18:56:26;;;;;;;12.30;5.07;;;;;;;15.87;100.00;101486.94;10566380;27;20035;-79
2024/02/07 19:01:50;;;;;;;13.50;5.03;;;;;;;15.87;100.00;101501.13;10589740;27;20046;-83
2024/02/07 19:07:12;;;;;;;16.35;4.38;;;;;;;15.87;100.00;101490.47;10595704;27;20821;-83
2024/02/07 19:12:35;;;;;;;12.45;4.40;;;;;;;15.83;100.00;101495.75;10597467;27;20646;-82
2024/02/07 19:17:59;;;;;;;19.90;5.18;;;;;;;15.82;100.00;101494.88;10599554;28;20104;-82
2024/02/07 19:23:22;;;;;;;16.55;5.45;;;;;;;15.90;100.00;101471.84;10586648;28;20051;-83
2024/02/07 19:28:44;;;;;;;16.67;4.60;;;;;;;15.89;100.00;101490.47;10584999;28;20035;-81
2024/02/07 19:34:25;;;;;;;20.80;5.60;;;;;;;15.85;100.00;101484.25;10567826;28;20048;-83
2024/02/07 19:39:47;;;;;;;19.23;5.05;;;;;;;15.79;100.00;101486.88;10584781;28;20099;-84
2024/02/07 19:45:10;;;;;;;12.57;4.53;;;;;;;15.82;100.00;101478.88;10594661;28;20130;-84
2024/02/07 19:50:34;;;;;;;16.48;4.88;;;;;;;15.83;100.00;101478.00;10586802;28;20051;-82
2024/02/07 19:55:57;;;;;;;14.13;4.72;;;;;;;15.79;100.00;101480.66;10584153;28;20498;-81
2024/02/07 20:01:19;;;;;;;16.50;3.92;;;;;;;15.73;100.00;101488.59;10578412;28;20483;-81
2024/02/07 20:06:44;;;;;;;15.40;4.90;;;;;;;15.68;100.00;101493.91;10607105;28;20395;-81
2024/02/07 20:12:07;;;;;;;12.55;3.72;;;;;;;15.67;100.00;101486.81;10569123;28;20069;-82
2024/02/07 20:17:29;;;;;;;11.95;4.20;;;;;;;15.68;100.00;101477.06;10527021;28;20040;-83
2024/02/07 20:22:57;;;;;;;10.38;3.60;;;;;;;15.60;100.00;101478.75;10544452;28;20051;-79
2024/02/07 20:28:20;;;;;;;13.82;3.88;;;;;;;15.61;100.00;101461.91;10552537;28;20044;-83
2024/02/07 20:33:43;;;;;;;10.82;3.80;;;;;;;15.54;100.00;101471.63;10570495;27;20047;-83
2024/02/07 20:39:07;;;;;;;11.85;3.50;;;;;;;15.60;100.00;101465.47;10566971;27;20542;-81
2024/02/07 20:44:31;;;;;;;14.60;3.95;;;;;;;15.59;100.00;101450.38;10585145;27;20500;-83
2024/02/07 20:49:54;;;;;;;13.85;4.05;;;;;;;15.55;100.00;101457.44;10555917;27;20233;-82
2024/02/07 20:55:18;;;;;;;9.40;3.55;;;;;;;15.52;100.00;101454.72;10585755;27;20048;-83
2024/02/07 21:00:41;;;;;;;11.27;3.40;;;;;;;15.49;100.00;101447.59;10581284;27;20360;-83
2024/02/07 21:06:03;;;;;;;10.82;3.83;;;;;;;15.46;100.00;101457.34;10567929;27;20043;-83
2024/02/07 21:11:28;;;;;;;9.40;3.78;;;;;;;15.45;100.00;101437.81;10580536;27;20186;-83
2024/02/07 21:16:51;;;;;;;11.50;3.63;;;;;;;15.44;100.00;101441.38;10544732;28;20071;-83
2024/02/07 21:22:14;;;;;;;9.88;3.60;;;;;;;15.53;100.00;101451.22;10560077;28;20529;-83
2024/02/07 21:27:38;;;;;;;11.88;3.13;;;;;;;15.56;100.00;101437.91;10554179;28;20497;-83
2024/02/07 21:33:01;;;;;;;10.20;3.10;;;;;;;15.55;100.00;101444.16;10568451;28;20461;-82
2024/02/07 21:38:24;;;;;;;11.85;3.47;;;;;;;15.51;100.00;101426.31;10578069;28;20475;-83
2024/02/07 21:43:49;;;;;;;9.35;3.05;;;;;;;15.42;100.00;101444.91;10563258;28;20259;-83
2024/02/07 21:49:12;;;;;;;10.38;3.38;;;;;;;15.43;100.00;101450.22;10551046;28;20054;-82
2024/02/07 21:54:34;;;;;;;9.68;3.22;;;;;;;15.49;100.00;101439.63;10548468;28;20043;-82
2024/02/07 21:59:58;;;;;;;11.10;3.72;;;;;;;15.58;100.00;101445.91;10560852;28;20050;-82
2024/02/07 22:05:23;;;;;;;11.50;4.03;;;;;;;15.53;100.00;101453.88;10543097;28;20051;-84
2024/02/07 22:10:46;;;;;;;8.77;2.30;;;;;;;15.55;100.00;101446.81;10558044;28;20052;-83
2024/02/07 22:16:10;;;;;;;10.85;3.28;;;;;;;15.55;100.00;101441.47;10560132;28;20419;-83
2024/02/07 22:21:34;;;;;;;9.65;3.60;;;;;;;15.44;100.00;101440.47;10550047;28;20051;-83
2024/02/07 22:26:56;;;;;;;11.80;2.88;;;;;;;15.45;100.00;101435.16;10549164;28;20055;-83
2024/02/07 22:32:21;;;;;;;7.50;2.40;;;;;;;15.41;100.00;101428.06;10562923;28;21256;-83
2024/02/07 22:37:43;;;;;;;9.95;3.58;;;;;;;15.36;100.00;101440.41;10548532;28;20047;-82
2024/02/07 22:43:06;;;;;;;9.23;2.92;;;;;;;15.35;100.00;101443.09;10549832;28;20092;-82
2024/02/07 22:48:29;;;;;;;7.72;3.40;;;;;;;15.38;100.00;101420.03;10559845;28;20047;-83
2024/02/07 22:53:52;;;;;;;13.43;3.55;;;;;;;15.35;100.00;101440.44;10545620;28;20067;-82
2024/02/07 22:59:15;;;;;;;13.75;3.33;;;;;;;15.33;100.00;101443.06;10562656;28;20048;-82
2024/02/07 23:04:39;;;;;;;10.07;3.42;;;;;;;15.39;100.00;101445.78;10547921;28;20058;-82
2024/02/07 23:10:01;;;;;;;7.57;3.30;;;;;;;15.40;100.00;101454.66;10546190;28;20134;-82
2024/02/07 23:15:25;;;;;;;12.10;3.58;;;;;;;15.34;100.00;101444.84;10549245;28;20039;-83
2024/02/07 23:20:50;;;;;;;14.90;4.10;;;;;;;15.33;100.00;101452.81;10547798;28;20058;-82
2024/02/07 23:26:12;;;;;;;12.05;4.53;;;;;;;15.36;100.00;101452.84;10548231;28;20059;-81
2024/02/07 23:31:35;;;;;;;11.85;3.80;;;;;;;15.36;100.00;101447.53;10562709;28;20043;-83
2024/02/07 23:36:59;;;;;;;11.60;4.55;;;;;;;15.42;100.00;101442.25;10548850;28;20048;-82
2024/02/07 23:42:23;;;;;;;14.02;4.18;;;;;;;15.38;100.00;101448.41;10563512;28;20066;-81
2024/02/07 23:47:45;;;;;;;12.75;4.63;;;;;;;15.34;100.00;101438.63;10562421;28;20110;-82
2024/02/07 23:53:09;;;;;;;10.15;3.45;;;;;;;15.46;100.00;101434.28;10546831;28;20411;-83
2024/02/07 23:58:32;;;;;;;13.48;4.30;;;;;;;15.44;100.00;101435.16;10549909;28;20396;-82
